createdAt,value
2023-04-18T00:00:12.370Z,98403.16
2023-04-18T00:02:40.109Z,98398.44
2023-04-18T00:05:07.973Z,98390.53
2023-04-18T00:07:37.956Z,98402.53
2023-04-18T00:10:06.137Z,98398.75
2023-04-18T00:12:34.408Z,98402.66
2023-04-18T00:15:04.437Z,98392.81
2023-04-18T00:17:31.927Z,98393.59
2023-04-18T00:19:59.007Z,98391.44
2023-04-18T00:22:26.059Z,98384.75
2023-04-18T00:24:52.989Z,98382.41
2023-04-18T00:27:20.542Z,98383.56
2023-04-18T00:29:48.200Z,98388.69
2023-04-18T00:32:18.102Z,98384.72
2023-04-18T00:34:45.241Z,98393.19
2023-04-18T00:37:13.008Z,98386.31
2023-04-18T00:39:42.153Z,98380.19
2023-04-18T00:42:10.328Z,98386.94
2023-04-18T00:44:37.273Z,98379.03
2023-04-18T00:47:04.281Z,98383.38
2023-04-18T00:49:35.833Z,98385.16
2023-04-18T00:52:02.839Z,98382.22
2023-04-18T00:54:30.166Z,98378.69
2023-04-18T00:56:57.165Z,98378.88
2023-04-18T00:59:27.117Z,98377.72
2023-04-18T01:01:54.816Z,98377.53
2023-04-18T01:04:22.414Z,98367.66
2023-04-18T01:06:51.335Z,98375.72
2023-04-18T01:09:20.106Z,98373.75
2023-04-18T01:11:47.026Z,98378.28
2023-04-18T01:14:16.472Z,98369.84
2023-04-18T01:16:44.115Z,98368.84
2023-04-18T01:19:11.519Z,98364.31
2023-04-18T01:21:43.880Z,98360.94
2023-04-18T01:24:16.338Z,98369.59
2023-04-18T01:26:47.514Z,98367.97
2023-04-18T01:29:14.455Z,98373.91
2023-04-18T01:31:41.596Z,98371.19
2023-04-18T01:34:08.884Z,98363.91
2023-04-18T01:36:37.199Z,98370.03
2023-04-18T01:39:04.247Z,98372.94
2023-04-18T01:41:33.154Z,98366.41
2023-04-18T01:44:00.558Z,98369.19
2023-04-18T01:46:27.849Z,98352.22
2023-04-18T01:48:55.263Z,98358.53
2023-04-18T01:51:22.601Z,98359.53
2023-04-18T01:53:52.776Z,98347.66
2023-04-18T01:56:20.078Z,98363.00
2023-04-18T01:58:48.635Z,98355.28
2023-04-18T02:01:15.912Z,98359.66
2023-04-18T02:03:43.198Z,98362.44
2023-04-18T02:06:10.703Z,98362.03
2023-04-18T02:08:37.677Z,98365.41
2023-04-18T02:11:05.117Z,98363.84
2023-04-18T02:13:34.777Z,98360.84
2023-04-18T02:16:12.934Z,98358.72
2023-04-18T02:18:43.617Z,98366.22
2023-04-18T02:21:11.286Z,98361.84
2023-04-18T02:23:38.214Z,98371.94
2023-04-18T02:26:05.339Z,98364.06
2023-04-18T02:28:33.033Z,98369.03
2023-04-18T02:31:03.483Z,98366.88
2023-04-18T02:33:31.777Z,98367.88
2023-04-18T02:35:58.663Z,98366.28
2023-04-18T02:38:25.675Z,98379.69
2023-04-18T02:40:52.584Z,98376.31
2023-04-18T02:43:20.898Z,98373.09
2023-04-18T02:45:47.903Z,98375.91
2023-04-18T02:48:15.037Z,98373.81
2023-04-18T02:50:43.356Z,98375.59
2023-04-18T02:53:10.481Z,98379.16
2023-04-18T02:55:55.918Z,98381.50
2023-04-18T02:58:28.330Z,98381.50
2023-04-18T03:01:34.561Z,98370.53
2023-04-18T03:04:09.392Z,98385.69
2023-04-18T03:06:56.180Z,98382.72
2023-04-18T03:09:23.613Z,98378.00
2023-04-18T03:11:56.109Z,98389.06
2023-04-18T03:14:26.636Z,98393.00
2023-04-18T03:16:56.070Z,98392.59
2023-04-18T03:19:27.765Z,98398.91
2023-04-18T03:21:57.962Z,98399.31
2023-04-18T03:24:25.011Z,98387.88
2023-04-18T03:26:59.771Z,98388.66
2023-04-18T03:29:26.998Z,98389.81
2023-04-18T03:31:56.526Z,98398.91
2023-04-18T03:34:23.613Z,98395.75
2023-04-18T03:36:51.049Z,98404.03
2023-04-18T03:39:19.421Z,98395.94
2023-04-18T03:41:49.805Z,98412.09
2023-04-18T03:44:17.561Z,98407.97
2023-04-18T03:46:45.764Z,98407.78
2023-04-18T03:49:12.840Z,98403.63
2023-04-18T03:51:47.267Z,98403.63
2023-04-18T03:54:14.715Z,98408.56
2023-04-18T03:56:44.157Z,98404.22
2023-04-18T03:59:12.314Z,98413.69
2023-04-18T04:01:41.397Z,98419.00
2023-04-18T04:04:09.425Z,98417.41
2023-04-18T04:06:36.663Z,98409.53
2023-04-18T04:09:03.921Z,98411.69
2023-04-18T04:11:30.906Z,98414.63
2023-04-18T04:13:59.640Z,98419.75
2023-04-18T04:16:33.585Z,98418.38
2023-04-18T04:19:01.035Z,98424.88
2023-04-18T04:21:35.950Z,98419.75
2023-04-18T04:24:03.600Z,98428.00
2023-04-18T04:26:36.038Z,98429.00
2023-04-18T04:29:10.969Z,98432.47
2023-04-18T04:31:39.443Z,98431.50
2023-04-18T04:34:07.063Z,98428.34
2023-04-18T04:36:34.878Z,98427.94
2023-04-18T04:39:05.362Z,98429.53
2023-04-18T04:41:42.932Z,98432.09
2023-04-18T04:44:12.685Z,98436.59
2023-04-18T04:46:40.414Z,98437.97
2023-04-18T04:49:14.453Z,98436.75
2023-04-18T04:51:43.031Z,98442.09
2023-04-18T04:54:10.861Z,98440.91
2023-04-18T04:56:38.281Z,98449.97
2023-04-18T04:59:06.012Z,98443.25
2023-04-18T05:01:41.592Z,98446.22
2023-04-18T05:04:08.753Z,98446.41
2023-04-18T05:06:35.906Z,98442.84
2023-04-18T05:09:02.823Z,98448.38
2023-04-18T05:11:32.495Z,98448.44
2023-04-18T05:14:02.422Z,98454.16
2023-04-18T05:16:29.629Z,98451.59
2023-04-18T05:18:57.980Z,98459.50
2023-04-18T05:21:26.155Z,98465.03
2023-04-18T05:23:53.232Z,98451.03
2023-04-18T05:26:21.127Z,98460.69
2023-04-18T05:28:48.232Z,98465.22
2023-04-18T05:31:15.272Z,98467.19
2023-04-18T05:33:42.341Z,98467.75
2023-04-18T05:36:10.826Z,98471.28
2023-04-18T05:38:37.770Z,98477.81
2023-04-18T05:41:04.902Z,98465.94
2023-04-18T05:43:32.014Z,98460.25
2023-04-18T05:45:59.151Z,98464.97
2023-04-18T05:48:26.230Z,98477.38
2023-04-18T05:50:53.131Z,98475.41
2023-04-18T05:53:21.496Z,98474.22
2023-04-18T05:55:48.963Z,98470.72
2023-04-18T05:58:16.079Z,98472.47
2023-04-18T06:00:44.292Z,98479.16
2023-04-18T06:03:11.800Z,98485.69
2023-04-18T06:05:41.020Z,98478.78
2023-04-18T06:08:08.154Z,98472.06
2023-04-18T06:10:38.964Z,98476.19
2023-04-18T06:13:06.216Z,98469.25
2023-04-18T06:15:33.813Z,98481.69
2023-04-18T06:18:01.071Z,98476.75
2023-04-18T06:20:28.178Z,98481.44
2023-04-18T06:22:55.284Z,98486.56
2023-04-18T06:25:22.636Z,98490.13
2023-04-18T06:27:50.925Z,98497.38
2023-04-18T06:30:21.878Z,98487.72
2023-04-18T06:32:49.433Z,98484.94
2023-04-18T06:35:16.861Z,98491.44
2023-04-18T06:37:44.982Z,98488.13
2023-04-18T06:40:12.756Z,98485.75
2023-04-18T06:42:39.737Z,98486.50
2023-04-18T06:45:10.760Z,98487.94
2023-04-18T06:47:37.814Z,98482.97
2023-04-18T06:50:06.157Z,98485.94
2023-04-18T06:52:33.320Z,98498.03
2023-04-18T06:55:00.228Z,98494.13
2023-04-18T06:57:27.325Z,98505.56
2023-04-18T06:59:54.263Z,98494.50
2023-04-18T07:02:22.653Z,98501.56
2023-04-18T07:04:50.204Z,98509.41
2023-04-18T07:07:17.336Z,98506.66
2023-04-18T07:09:44.237Z,98500.94
2023-04-18T07:12:11.167Z,98503.06
2023-04-18T07:14:38.758Z,98499.13
2023-04-18T07:17:05.836Z,98504.25
2023-04-18T07:19:34.201Z,98509.00
2023-04-18T07:22:01.334Z,98511.22
2023-04-18T07:24:28.629Z,98516.94
2023-04-18T07:26:55.616Z,98510.03
2023-04-18T07:29:22.538Z,98502.91
2023-04-18T07:31:49.875Z,98506.25
2023-04-18T07:34:17.481Z,98506.84
2023-04-18T07:36:45.878Z,98506.28
2023-04-18T07:39:12.813Z,98507.47
2023-04-18T07:41:39.835Z,98509.81
2023-04-18T07:44:07.097Z,98511.63
2023-04-18T07:46:34.171Z,98511.03
2023-04-18T07:49:02.449Z,98509.81
2023-04-18T07:51:31.851Z,98519.22
2023-04-18T07:54:00.445Z,98504.56
2023-04-18T07:56:28.847Z,98502.78
2023-04-18T07:58:55.869Z,98506.91
2023-04-18T08:01:24.761Z,98507.47
2023-04-18T08:03:53.609Z,98515.94
2023-04-18T08:06:21.486Z,98518.88
2023-04-18T08:08:48.500Z,98513.53
2023-04-18T08:11:16.866Z,98518.28
2023-04-18T08:13:44.198Z,98513.91
2023-04-18T08:16:11.158Z,98522.13
2023-04-18T08:18:38.142Z,98515.72
2023-04-18T08:21:05.716Z,98513.19
2023-04-18T08:23:32.624Z,98515.69
2023-04-18T08:25:59.586Z,98519.47
2023-04-18T08:28:27.853Z,98521.69
2023-04-18T08:30:56.505Z,98521.91
2023-04-18T08:33:24.532Z,98522.47
2023-04-18T08:35:51.894Z,98532.88
2023-04-18T08:38:19.457Z,98530.31
2023-04-18T08:40:47.214Z,98533.50
2023-04-18T08:43:15.714Z,98532.41
2023-04-18T08:45:44.847Z,98526.66
2023-04-18T08:48:13.182Z,98528.03
2023-04-18T08:50:40.739Z,98518.72
2023-04-18T08:53:08.235Z,98524.38
2023-04-18T08:55:35.809Z,98530.50
2023-04-18T08:58:03.139Z,98524.19
2023-04-18T09:00:30.841Z,98533.84
2023-04-18T09:02:59.464Z,98522.94
2023-04-18T09:05:27.681Z,98516.34
2023-04-18T09:07:56.284Z,98514.28
2023-04-18T09:10:29.016Z,98520.94
2023-04-18T09:15:27.266Z,98522.88
2023-04-18T09:17:56.497Z,98514.44
2023-04-18T09:20:36.029Z,98527.22
2023-04-18T09:23:04.627Z,98520.09
2023-04-18T09:25:39.815Z,98522.78
2023-04-18T09:28:23.404Z,98521.75
2023-04-18T09:30:52.429Z,98520.09
2023-04-18T09:33:28.381Z,98533.97
2023-04-18T09:35:57.291Z,98535.50
2023-04-18T09:38:39.808Z,98539.84
2023-04-18T09:41:10.735Z,98544.84
2023-04-18T09:43:39.390Z,98536.75
2023-04-18T09:46:08.042Z,98542.41
2023-04-18T09:48:35.313Z,98542.53
2023-04-18T09:51:07.023Z,98547.84
2023-04-18T09:53:35.053Z,98536.00
2023-04-18T09:56:03.403Z,98533.13
2023-04-18T09:58:33.128Z,98528.06
2023-04-18T10:01:00.811Z,98521.38
2023-04-18T10:03:34.583Z,98525.13
2023-04-18T10:06:03.697Z,98517.09
2023-04-18T10:08:31.987Z,98523.47
2023-04-18T10:10:59.082Z,98533.41
2023-04-18T10:13:28.038Z,98534.00
2023-04-18T10:15:55.527Z,98527.81
2023-04-18T10:18:24.385Z,98526.97
2023-04-18T10:21:00.501Z,98534.25
2023-04-18T10:23:39.401Z,98531.69
2023-04-18T10:26:07.160Z,98533.09
2023-04-18T10:28:58.572Z,98531.53
2023-04-18T10:31:27.168Z,98517.50
2023-04-18T10:34:04.640Z,98507.84
2023-04-18T10:36:33.097Z,98509.13
2023-04-18T10:39:05.831Z,98511.84
2023-04-18T10:41:33.926Z,98498.66
2023-04-18T10:44:22.279Z,98481.97
2023-04-18T10:47:21.135Z,98477.97
2023-04-18T10:49:57.073Z,98479.97
2023-04-18T10:52:24.359Z,98493.75
2023-04-18T10:54:58.487Z,98494.66
2023-04-18T10:57:37.799Z,98497.31
2023-04-18T11:00:09.484Z,98506.53
2023-04-18T11:02:37.150Z,98503.94
2023-04-18T11:05:05.503Z,98510.34
2023-04-18T11:07:34.056Z,98512.00
2023-04-18T11:10:02.838Z,98509.53
2023-04-18T11:12:31.921Z,98514.13
2023-04-18T11:14:59.496Z,98504.47
2023-04-18T11:17:27.741Z,98507.25
2023-04-18T11:20:01.159Z,98509.28
2023-04-18T11:22:28.404Z,98511.94
2023-04-18T11:24:58.798Z,98522.97
2023-04-18T11:27:27.169Z,98517.16
2023-04-18T11:29:55.082Z,98534.63
2023-04-18T11:32:23.484Z,98522.66
2023-04-18T11:34:54.586Z,98519.44
2023-04-18T11:37:21.943Z,98517.31
2023-04-18T11:39:49.027Z,98521.91
2023-04-18T11:42:16.297Z,98511.59
2023-04-18T11:44:47.866Z,98509.59
2023-04-18T11:47:25.750Z,98501.38
2023-04-18T11:49:57.369Z,98499.59
2023-04-18T11:52:26.049Z,98507.00
2023-04-18T11:54:53.134Z,98500.59
2023-04-18T11:57:22.383Z,98498.56
2023-04-18T11:59:56.469Z,98489.03
2023-04-18T12:02:25.914Z,98484.66
2023-04-18T12:04:56.080Z,98486.09
2023-04-18T12:07:37.759Z,98480.47
2023-04-18T12:10:06.918Z,98483.72
2023-04-18T12:12:34.132Z,98485.69
2023-04-18T12:15:05.554Z,98475.16
2023-04-18T12:17:32.728Z,98469.16
2023-04-18T12:20:04.872Z,98482.91
2023-04-18T12:22:42.257Z,98465.31
2023-04-18T12:25:27.165Z,98470.75
2023-04-18T12:27:58.362Z,98452.97
2023-04-18T12:30:30.332Z,98457.00
2023-04-18T12:32:58.979Z,98455.19
2023-04-18T12:35:26.217Z,98456.28
2023-04-18T12:37:55.253Z,98445.63
2023-04-18T12:40:23.107Z,98436.06
2023-04-18T12:42:51.511Z,98443.28
2023-04-18T12:45:20.163Z,98444.19
2023-04-18T12:47:50.320Z,98438.31
2023-04-18T12:50:19.623Z,98438.63
2023-04-18T12:52:46.921Z,98431.91
2023-04-18T12:55:14.384Z,98439.59
2023-04-18T12:57:42.589Z,98438.69
2023-04-18T13:00:11.229Z,98429.28
2023-04-18T13:02:40.153Z,98434.97
2023-04-18T13:05:10.413Z,98423.53
2023-04-18T13:07:38.087Z,98431.84
2023-04-18T13:10:05.952Z,98426.44
2023-04-18T13:12:32.967Z,98427.31
2023-04-18T13:14:59.878Z,98429.78
2023-04-18T13:17:26.874Z,98428.19
2023-04-18T13:19:53.866Z,98427.44
2023-04-18T13:22:22.431Z,98424.25
2023-04-18T13:24:49.449Z,98419.97
2023-04-18T13:27:16.404Z,98415.81
2023-04-18T13:29:45.680Z,98419.06
2023-04-18T13:32:16.056Z,98406.81
2023-04-18T13:34:44.439Z,98410.22
2023-04-18T13:37:11.555Z,98414.44
2023-04-18T13:39:40.333Z,98415.31
2023-04-18T13:42:07.719Z,98410.41
2023-04-18T13:44:35.892Z,98406.00
2023-04-18T13:47:03.978Z,98401.91
2023-04-18T13:49:31.275Z,98396.97
2023-04-18T13:51:58.332Z,98407.81
2023-04-18T13:54:26.648Z,98404.09
2023-04-18T13:56:57.152Z,98402.78
2023-04-18T13:59:24.296Z,98398.41
2023-04-18T14:01:52.118Z,98404.06
2023-04-18T14:04:20.718Z,98399.63
2023-04-18T14:06:48.874Z,98394.91
2023-04-18T14:09:16.747Z,98402.34
2023-04-18T14:11:44.106Z,98403.88
2023-04-18T14:14:12.550Z,98403.06
2023-04-18T14:16:39.578Z,98399.44
2023-04-18T14:19:06.748Z,98405.41
2023-04-18T14:21:33.686Z,98398.38
2023-04-18T14:24:00.594Z,98389.53
2023-04-18T14:26:27.782Z,98391.84
2023-04-18T14:28:54.730Z,98389.19
2023-04-18T14:31:23.160Z,98384.22
2023-04-18T14:33:50.150Z,98388.06
2023-04-18T14:36:17.173Z,98389.66
2023-04-18T14:38:48.359Z,98393.25
2023-04-18T14:41:15.465Z,98389.56
2023-04-18T14:43:43.174Z,98389.81
2023-04-18T14:46:13.830Z,98380.50
2023-04-18T14:48:42.474Z,98388.50
2023-04-18T14:51:09.400Z,98386.16
2023-04-18T14:53:36.536Z,98385.81
2023-04-18T14:56:03.729Z,98388.81
2023-04-18T14:58:30.688Z,98383.03
2023-04-18T15:00:57.643Z,98386.09
2023-04-18T15:03:25.028Z,98385.03
2023-04-18T15:05:53.833Z,98388.56
2023-04-18T15:08:21.273Z,98386.41
2023-04-18T15:10:48.198Z,98394.34
2023-04-18T15:13:15.990Z,98398.44
2023-04-18T15:15:43.060Z,98394.72
2023-04-18T15:18:11.236Z,98399.81
2023-04-18T15:20:39.554Z,98406.50
2023-04-18T15:23:09.786Z,98400.53
2023-04-18T15:25:36.827Z,98399.75
2023-04-18T15:28:04.043Z,98399.53
2023-04-18T15:30:31.049Z,98395.91
2023-04-18T15:32:58.653Z,98395.91
2023-04-18T15:35:25.887Z,98397.19
2023-04-18T15:37:54.050Z,98392.16
2023-04-18T15:40:22.403Z,98388.25
2023-04-18T15:42:50.970Z,98386.22
2023-04-18T15:45:18.542Z,98382.38
2023-04-18T15:47:45.585Z,98377.72
2023-04-18T15:50:12.824Z,98368.41
2023-04-18T15:52:41.507Z,98362.69
2023-04-18T15:55:10.785Z,98358.78
2023-04-18T15:57:39.275Z,98350.16
2023-04-18T16:00:11.814Z,98352.69
2023-04-18T16:02:38.924Z,98352.78
2023-04-18T16:05:07.463Z,98363.78
2023-04-18T16:07:34.549Z,98369.66
2023-04-18T16:10:03.534Z,98369.00
2023-04-18T16:12:30.549Z,98367.06
2023-04-18T16:14:59.061Z,98368.22
2023-04-18T16:17:25.980Z,98372.06
2023-04-18T16:19:54.244Z,98389.03
2023-04-18T16:22:21.916Z,98386.94
2023-04-18T16:24:48.835Z,98392.13
2023-04-18T16:27:16.937Z,98393.91
2023-04-18T16:29:49.695Z,98396.16
2023-04-18T16:32:18.028Z,98388.09
2023-04-18T16:34:45.059Z,98396.31
2023-04-18T16:37:15.074Z,98402.19
2023-04-18T16:39:42.522Z,98395.47
2023-04-18T16:42:09.468Z,98397.47
2023-04-18T16:44:36.364Z,98406.81
2023-04-18T16:47:05.144Z,98400.63
2023-04-18T16:49:33.966Z,98394.91
2023-04-18T16:52:01.866Z,98398.72
2023-04-18T16:54:28.943Z,98403.91
2023-04-18T16:56:55.853Z,98402.34
2023-04-18T16:59:23.178Z,98406.72
2023-04-18T17:01:50.252Z,98404.34
2023-04-18T17:04:17.503Z,98399.97
2023-04-18T17:06:46.630Z,98405.16
2023-04-18T17:09:14.701Z,98401.00
2023-04-18T17:11:41.986Z,98399.66
2023-04-18T17:14:09.125Z,98408.41
2023-04-18T17:16:40.686Z,98410.47
2023-04-18T17:19:08.596Z,98397.78
2023-04-18T17:21:36.530Z,98398.25
2023-04-18T17:24:06.958Z,98401.81
2023-04-18T17:26:35.011Z,98398.72
2023-04-18T17:29:04.147Z,98399.97
2023-04-18T17:31:31.551Z,98403.75
2023-04-18T17:33:58.958Z,98405.81
2023-04-18T17:36:26.362Z,98401.66
2023-04-18T17:38:53.319Z,98417.63
2023-04-18T17:41:22.072Z,98412.91
2023-04-18T17:43:50.987Z,98418.31
2023-04-18T17:46:18.243Z,98423.13
2023-04-18T17:48:45.385Z,98424.16
2023-04-18T17:51:12.646Z,98425.16
2023-04-18T17:53:39.562Z,98425.41
2023-04-18T17:56:06.545Z,98427.19
2023-04-18T17:58:34.903Z,98413.75
2023-04-18T18:01:01.846Z,98421.47
2023-04-18T18:03:29.052Z,98419.13
2023-04-18T18:05:56.173Z,98418.34
2023-04-18T18:08:23.290Z,98417.53
2023-04-18T18:10:53.263Z,98413.41
2023-04-18T18:13:20.292Z,98423.94
2023-04-18T18:15:48.627Z,98418.78
2023-04-18T18:18:27.183Z,98417.22
2023-04-18T18:20:54.656Z,98426.53
2023-04-18T18:23:22.068Z,98418.00
2023-04-18T18:25:50.300Z,98412.06
2023-04-18T18:28:17.589Z,98418.25
2023-04-18T18:30:44.734Z,98409.94
2023-04-18T18:33:13.901Z,98415.09
2023-04-18T18:35:40.840Z,98409.16
2023-04-18T18:38:07.755Z,98416.13
2023-04-18T18:40:34.762Z,98404.22
2023-04-18T18:43:01.661Z,98407.81
2023-04-18T18:45:28.838Z,98399.28
2023-04-18T18:47:55.796Z,98403.44
2023-04-18T18:50:24.178Z,98406.25
2023-04-18T18:52:51.179Z,98402.09
2023-04-18T18:55:18.735Z,98407.25
2023-04-18T18:57:45.658Z,98403.56
2023-04-18T19:00:13.538Z,98405.59
2023-04-18T19:02:40.765Z,98401.22
2023-04-18T19:05:12.534Z,98398.81
2023-04-18T19:07:43.711Z,98398.81
2023-04-18T19:10:11.055Z,98401.66
2023-04-18T19:12:38.195Z,98400.88
2023-04-18T19:15:06.483Z,98404.47
2023-04-18T19:17:33.659Z,98399.66
2023-04-18T19:20:01.612Z,98401.69
2023-04-18T19:22:28.888Z,98399.09
2023-04-18T19:24:58.456Z,98400.66
2023-04-18T19:27:25.905Z,98401.91
2023-04-18T19:29:52.851Z,98398.53
2023-04-18T19:32:20.577Z,98405.25
2023-04-18T19:34:47.656Z,98401.91
2023-04-18T19:37:14.546Z,98398.53
2023-04-18T19:39:41.458Z,98401.13
2023-04-18T19:42:10.377Z,98389.25
2023-04-18T19:44:37.279Z,98394.84
2023-04-18T19:47:04.242Z,98397.66
2023-04-18T19:49:31.207Z,98394.06
2023-04-18T19:51:58.140Z,98397.66
2023-04-18T19:54:25.164Z,98393.97
2023-04-18T19:56:52.193Z,98391.50
2023-04-18T19:59:20.616Z,98385.00
2023-04-18T20:01:47.654Z,98382.09
2023-04-18T20:04:14.891Z,98392.19
2023-04-18T20:06:42.647Z,98387.16
2023-04-18T20:09:15.425Z,98379.53
2023-04-18T20:11:43.143Z,98375.28
2023-04-18T20:14:10.613Z,98379.75
2023-04-18T20:16:39.193Z,98382.25
2023-04-18T20:19:06.175Z,98389.06
2023-04-18T20:21:33.140Z,98384.00
2023-04-18T20:24:00.074Z,98390.63
2023-04-18T20:26:27.069Z,98386.50
2023-04-18T20:28:54.056Z,98374.03
2023-04-18T20:31:21.139Z,98379.31
2023-04-18T20:33:49.488Z,98382.88
2023-04-18T20:36:19.547Z,98394.09
2023-04-18T20:38:47.179Z,98399.31
2023-04-18T20:41:14.821Z,98393.25
2023-04-18T20:43:42.980Z,98399.25
2023-04-18T20:46:12.861Z,98404.09
2023-04-18T20:48:40.253Z,98399.69
2023-04-18T20:51:08.948Z,98397.13
2023-04-18T20:53:35.983Z,98384.03
2023-04-18T20:56:03.183Z,98383.59
2023-04-18T20:58:30.634Z,98374.84
2023-04-18T21:00:57.604Z,98380.69
2023-04-18T21:03:24.920Z,98385.03
2023-04-18T21:05:52.767Z,98377.75
2023-04-18T21:08:21.571Z,98377.97
2023-04-18T21:10:48.461Z,98380.56
2023-04-18T21:13:15.715Z,98383.34
2023-04-18T21:15:43.151Z,98379.00
2023-04-18T21:18:10.717Z,98385.47
2023-04-18T21:20:38.152Z,98376.53
2023-04-18T21:23:05.122Z,98379.31
2023-04-18T21:25:33.707Z,98371.06
2023-04-18T21:28:00.667Z,98379.22
2023-04-18T21:30:27.590Z,98368.34
2023-04-18T21:32:54.623Z,98376.75
2023-04-18T21:35:23.480Z,98387.03
2023-04-18T21:37:51.806Z,98380.09
2023-04-18T21:40:18.935Z,98385.00
2023-04-18T21:42:49.360Z,98381.09
2023-04-18T21:45:17.196Z,98386.25
2023-04-18T21:47:44.557Z,98382.22
2023-04-18T21:50:11.809Z,98378.63
2023-04-18T21:52:38.739Z,98377.66
2023-04-18T21:55:06.544Z,98375.06
2023-04-18T21:57:33.501Z,98369.94
2023-04-18T22:00:01.731Z,98368.34
2023-04-18T22:02:36.064Z,98368.34
2023-04-18T22:05:03.250Z,98375.06
2023-04-18T22:07:31.108Z,98370.25
2023-04-18T22:09:59.845Z,98368.47
2023-04-18T22:12:27.113Z,98375.19
2023-04-18T22:14:54.550Z,98373.03
2023-04-18T22:17:22.880Z,98366.34
2023-04-18T22:19:50.449Z,98370.16
2023-04-18T22:22:17.385Z,98369.25
2023-04-18T22:24:47.351Z,98367.66
2023-04-18T22:27:15.337Z,98366.09
2023-04-18T22:29:42.259Z,98355.00
2023-04-18T22:32:09.224Z,98367.31
2023-04-18T22:34:37.564Z,98364.16
2023-04-18T22:37:04.681Z,98368.88
2023-04-18T22:39:31.612Z,98359.16
2023-04-18T22:41:58.561Z,98360.94
2023-04-18T22:44:25.474Z,98346.28
2023-04-18T22:46:54.695Z,98353.88
2023-04-18T22:49:22.449Z,98346.38
2023-04-18T22:51:54.362Z,98344.81
2023-04-18T22:54:21.532Z,98341.22
2023-04-18T22:56:49.578Z,98338.88
2023-04-18T22:59:16.964Z,98329.03
2023-04-18T23:01:44.032Z,98331.81
2023-04-18T23:04:11.344Z,98323.16
2023-04-18T23:06:38.857Z,98331.13
2023-04-18T23:09:09.623Z,98333.56
2023-04-18T23:11:36.521Z,98329.44
2023-04-18T23:14:03.539Z,98319.56
2023-04-18T23:16:30.541Z,98313.09
2023-04-18T23:18:57.544Z,98318.09
2023-04-18T23:21:24.597Z,98322.47
2023-04-18T23:23:51.491Z,98317.09
2023-04-18T23:26:20.728Z,98316.31
2023-04-18T23:28:47.662Z,98319.09
2023-04-18T23:31:14.848Z,98315.41
2023-04-18T23:33:41.781Z,98312.25
2023-04-18T23:36:09.222Z,98313.84
2023-04-18T23:38:37.309Z,98307.75
2023-04-18T23:41:04.516Z,98310.22
2023-04-18T23:43:33.140Z,98314.00
2023-04-18T23:46:02.710Z,98312.41
2023-04-18T23:48:29.685Z,98315.44
2023-04-18T23:50:56.588Z,98308.38
2023-04-18T23:53:24.798Z,98304.69
2023-04-18T23:55:53.649Z,98308.88
2023-04-18T23:58:20.779Z,98303.41
